Latest Weather Observations for PORTABLE RFSNSW17

IDN60801

Issued at 3:22 pm EDT Friday 22 November 2019 (issued every 10 minutes, with the page automatically refreshed every 10 minutes)

About weather observations | Map of weather stations | Latest weather observations for NSW | Other Formats
Station Details ID: 250082 Name: PORTABLE RFSNSW17 Lat: -29.91 Lon: 153.13 Height: 330.0 m

Portable automatic weather stations (PAWS) are operated by other organisations, such as Fire and Emergency Services, and are included here by agreement. Portable stations may be deployed to a location for a short period and their location may be subject to change without notice. Wind observations from these stations are provided from heights of either three (3) or ten (10) metres above ground level (AGL).

Data from the previous 72 hours. | See also: Recent months for locations in New South Wales
Date/Time
EDT
Temp
°C
App
Temp
°C
Dew
Point
°C
Rel
Hum
%
Delta-T
°C
Wind Press
QNH
hPa
Press
MSL
hPa
Rain since
9am
mm
Dir  Spd
km/h
Gust
km/h
Spd
kts
Gust
kts
22/03:10pm 30.7 - 15.4 39 9.6 - - - - - - - -
22/03:00pm 30.9 - 15.6 39 9.6 - - - - - - - -
22/02:50pm 31.3 - 15.2 37 10.1 - - - - - - - -
22/02:40pm 31.9 - 15.2 36 10.4 - - - - - - - -
22/02:30pm 32.1 - 15.1 35 10.6 - - - - - - - -
22/02:20pm 31.6 - 15.6 38 10.1 - - - - - - - -
22/02:10pm 32.1 - 15.1 35 10.6 - - - - - - - -
22/02:00pm 32.3 - 15.0 35 10.8 - - - - - - - -
22/01:50pm 32.1 - 15.3 36 10.5 - - - - - - - -
22/01:40pm 32.7 - 15.7 36 10.7 - - - - - - - -
22/01:30pm 32.6 - 15.6 36 10.7 - - - - - - - -
22/01:20pm 33.5 - 15.6 34 11.3 - - - - - - - -
22/01:10pm 34.0 - 15.3 32 11.8 - - - - - - - -
22/01:00pm 34.1 - 14.8 31 12.1 - - - - - - - -
22/12:50pm 33.3 - 15.5 34 11.2 - - - - - - - -
22/12:40pm 33.8 - 15.0 32 11.8 - - - - - - - -
22/12:30pm 32.7 - 8.2 22 13.8 - - - - - - - -
22/12:20pm 32.5 - 8.3 22 13.7 - - - - - - - -
22/12:10pm 32.4 - 9.1 23 13.3 - - - - - - - -
22/12:00pm 30.6 - 9.2 26 12.1 - - - - - - - -
22/11:50am 29.6 - 8.8 27 11.7 - - - - - - - -
22/11:40am 29.6 - 10.4 30 11.1 - - - - - - - -
22/11:30am 30.0 - 10.6 30 11.2 - - - - - - - -
22/11:20am 29.4 - 11.0 32 10.7 - - - - - - - -
22/11:10am 29.1 - 11.1 32 10.5 - - - - - - - -
22/11:00am 27.8 - 11.2 35 9.6 - - - - - - - -
22/10:50am 27.8 - 10.9 35 9.7 - - - - - - - -
22/10:40am 27.5 - 11.3 36 9.4 - - - - - - - -
22/10:10am 26.2 22.9 12.7 43 8.0 WNW 22 30 12 16 - - 0.0
22/10:00am 25.8 23.1 13.0 45 7.6 W 19 26 10 14 - - 0.0
22/09:50am 24.9 21.7 13.1 48 7.0 W 22 26 12 14 - - 0.0
22/09:40am 24.3 21.4 13.9 52 6.2 W 22 22 12 12 - - 0.0
22/09:30am 23.7 20.8 13.9 54 5.8 W 22 26 12 14 - - 0.0
22/09:20am 23.5 20.6 13.9 55 5.7 W 22 26 12 14 - - 0.0
22/09:10am 22.7 19.6 13.5 56 5.4 W 22 30 12 16 - - 0.0
22/09:00am 22.0 18.4 14.1 61 4.7 WNW 26 30 14 16 - - 0.0
22/08:50am 21.7 18.1 14.2 62 4.4 WNW 26 32 14 17 - - 0.0
22/08:40am 21.2 17.5 14.0 63 4.2 WNW 26 32 14 17 - - 0.0
22/08:30am 20.9 17.4 14.4 66 3.8 WNW 26 32 14 17 - - 0.0
22/08:20am 20.3 16.0 14.5 69 3.4 WNW 30 32 16 17 - - 0.0
22/08:10am 19.9 15.4 14.8 72 3.0 WNW 32 39 17 21 - - 0.0
22/08:00am 19.6 15.5 14.9 74 2.8 WNW 30 35 16 19 - - 0.0
22/07:50am 19.1 15.0 15.0 77 2.4 WNW 30 32 16 17 - - 0.0
22/07:40am 18.6 14.6 15.2 80 2.0 WNW 30 32 16 17 - - 0.0
22/07:30am 18.2 15.0 15.4 84 1.7 W 26 30 14 16 - - 0.0
22/07:20am 17.9 13.9 15.3 85 1.5 WNW 30 32 16 17 - - 0.0
22/07:10am 17.9 13.9 15.2 84 1.6 WNW 30 32 16 17 - - 0.0
22/07:00am 17.8 13.8 15.2 85 1.5 WNW 30 35 16 19 - - 0.0
22/06:50am 17.7 13.3 15.2 85 1.5 WNW 32 35 17 19 - - 0.0
22/06:40am 17.7 13.2 15.0 84 1.6 WNW 32 35 17 19 - - 0.0
22/06:30am 17.6 13.5 15.0 85 1.5 WNW 30 30 16 16 - - 0.0
22/06:20am 17.7 13.6 14.9 84 1.6 WNW 30 39 16 21 - - 0.0
22/06:10am 17.9 13.4 14.8 82 1.8 NW 32 43 17 23 - - 0.0
22/06:00am 17.9 13.4 14.8 82 1.8 WNW 32 35 17 19 - - 0.0
22/05:50am 18.0 12.9 14.7 81 1.9 NW 35 39 19 21 - - 0.0
22/05:40am 17.9 12.8 14.7 81 1.9 NW 35 43 19 23 - - 0.0
22/05:30am 17.9 13.3 14.6 81 1.9 NW 32 39 17 21 - - 0.0
22/05:20am 18.0 13.4 14.6 80 2.0 NW 32 39 17 21 - - 0.0
22/05:10am 17.9 13.3 14.5 80 2.0 NW 32 35 17 19 - - 0.0
22/05:00am 17.8 13.2 14.7 82 1.8 NW 32 39 17 21 - - 0.0
22/04:50am 17.8 13.2 14.7 82 1.8 WNW 32 35 17 19 - - 0.0
22/04:40am 18.0 13.4 14.7 81 1.9 NW 32 39 17 21 - - 0.0
22/04:30am 18.1 13.9 14.6 80 2.1 NW 30 43 16 23 - - 0.0
22/04:20am 18.0 13.8 14.7 81 1.9 NW 30 35 16 19 - - 0.0
22/04:10am 18.0 14.6 14.7 81 1.9 NW 26 39 14 21 - - 0.0
22/04:00am 18.0 14.6 14.8 81 1.9 NW 26 30 14 16 - - 0.0
22/03:50am 18.1 15.5 14.8 81 1.9 NW 22 30 12 16 - - 0.0
22/03:40am 18.0 14.6 14.8 81 1.9 NW 26 35 14 19 - - 0.0
22/03:30am 18.1 14.8 15.0 82 1.8 NW 26 32 14 17 - - 0.0
22/03:20am 18.2 14.9 14.9 81 1.9 NW 26 30 14 16 - - 0.0
22/03:10am 18.3 15.0 15.0 81 2.0 NW 26 32 14 17 - - 0.0
22/03:00am 18.3 15.7 14.9 80 2.0 NW 22 26 12 14 - - 0.0
22/02:50am 18.4 14.3 15.0 80 2.0 NW 30 32 16 17 - - 0.0
22/02:40am 18.5 14.5 15.1 80 2.0 NW 30 35 16 19 - - 0.0
22/02:30am 18.4 15.2 15.2 81 1.9 NW 26 30 14 16 - - 0.0
22/02:20am 18.5 15.3 15.3 81 1.9 NW 26 32 14 17 - - 0.0
22/02:10am 18.5 16.1 15.4 82 1.8 NW 22 26 12 14 - - 0.0
22/02:00am 18.4 16.0 15.3 82 1.8 NW 22 32 12 17 - - 0.0
22/01:50am 18.2 16.4 15.5 84 1.6 NW 19 22 10 12 - - 0.0
22/01:40am 17.9 17.7 15.8 87 1.3 NNW 11 15 6 8 - - 0.0
22/01:30am 18.0 17.9 15.9 87 1.3 N 11 15 6 8 - - 0.0
22/01:20am 18.1 18.0 15.9 87 1.3 NNW 11 15 6 8 - - 0.0
22/01:10am 18.3 18.2 15.9 86 1.4 NNW 11 15 6 8 - - 0.0
22/01:00am 18.3 17.5 16.0 86 1.4 N 15 19 8 10 - - 0.0
22/12:50am 18.3 18.2 16.0 86 1.4 N 11 19 6 10 - - 0.0
22/12:40am 18.3 19.0 16.1 87 1.3 N 7 11 4 6 - - 0.0
22/12:30am 18.5 18.4 16.1 86 1.4 N 11 15 6 8 - - 0.0
22/12:20am 18.6 18.5 16.0 85 1.6 NNW 11 19 6 10 - - 0.0
22/12:10am 18.5 18.4 16.1 86 1.4 N 11 19 6 10 - - 0.0
22/12:00am 18.5 18.5 16.2 86 1.4 N 11 15 6 8 - - 0.0
 
Date/Time
EDT
Temp
°C
App
Temp
°C
Dew
Point
°C
Rel
Hum
%
Delta-T
°C
Wind Press
QNH
hPa
Press
MSL
hPa
Rain since
9am
mm
Dir  Spd
km/h
Gust
km/h
Spd
kts
Gust
kts
21/11:50pm 18.6 19.3 16.2 86 1.5 N 7 15 4 8 - - 0.0
21/11:40pm 18.7 18.6 16.1 85 1.6 N 11 15 6 8 - - 0.0
21/11:30pm 18.8 18.8 16.2 85 1.6 N 11 15 6 8 - - 0.0
21/11:20pm 18.8 18.8 16.2 85 1.6 N 11 19 6 10 - - 0.0
21/11:10pm 18.9 18.9 16.3 85 1.6 N 11 15 6 8 - - 0.0
21/11:00pm 18.9 18.9 16.3 85 1.6 N 11 11 6 6 - - 0.0
21/10:50pm 19.0 19.0 16.3 84 1.6 N 11 19 6 10 - - 0.0
21/10:40pm 19.1 19.1 16.3 84 1.7 NNE 11 19 6 10 - - 0.0
21/10:30pm 19.2 19.2 16.2 83 1.8 N 11 15 6 8 - - 0.0
21/10:20pm 19.3 18.5 16.2 82 1.9 N 15 19 8 10 - - 0.0
21/10:10pm 19.4 19.3 16.1 81 2.0 N 11 19 6 10 - - 0.0
21/10:00pm 19.5 18.6 15.9 80 2.2 N 15 19 8 10 - - 0.0
21/09:50pm 19.5 19.3 15.7 78 2.3 N 11 15 6 8 - - 0.0
21/09:40pm 19.6 19.4 15.7 78 2.3 N 11 19 6 10 - - 0.0
21/09:30pm 19.4 19.9 15.6 78 2.3 N 7 15 4 8 - - 0.0
21/09:20pm 19.4 20.0 15.7 79 2.2 NNE 7 11 4 6 - - 0.0
21/09:10pm 19.5 19.3 15.8 79 2.2 N 11 15 6 8 - - 0.0
21/09:00pm 19.3 20.0 16.0 81 2.0 N 7 7 4 4 - - 0.0
21/08:50pm 19.4 20.1 16.0 81 2.1 NNE 7 11 4 6 - - 0.0
21/08:40pm 19.4 19.3 16.1 81 2.0 NNE 11 15 6 8 - - 0.0
21/08:30pm 19.5 19.5 16.2 81 2.0 NNE 11 11 6 6 - - 0.0
21/08:20pm 19.5 19.6 16.4 82 1.9 NE 11 15 6 8 - - 0.0
21/08:10pm 19.5 19.6 16.4 82 1.9 NNE 11 15 6 8 - - 0.0
21/08:00pm 19.6 19.7 16.6 83 1.8 NNE 11 15 6 8 - - 0.0
21/07:50pm 19.6 19.8 16.7 83 1.8 NE 11 15 6 8 - - 0.0
21/07:40pm 19.7 19.2 16.8 83 1.8 NE 15 19 8 10 - - 0.0
21/07:30pm 19.8 19.3 16.8 83 1.8 NE 15 26 8 14 - - 0.0
21/07:20pm 19.9 19.4 16.8 82 1.9 NNE 15 22 8 12 - - 0.0
21/07:10pm 20.1 19.6 16.8 81 2.0 ENE 15 26 8 14 - - 0.0
21/07:00pm 20.3 19.0 16.9 81 2.1 ENE 19 22 10 12 - - 0.0
21/06:50pm 20.5 20.0 16.9 80 2.2 NE 15 19 8 10 - - 0.0
21/06:40pm 20.8 20.3 17.0 79 2.3 ENE 15 22 8 12 - - 0.0
21/06:30pm 21.1 19.8 16.9 77 2.6 NE 19 26 10 14 - - 0.0
21/06:20pm 21.5 21.8 17.1 76 2.7 ENE 11 15 6 8 - - 0.0
21/06:10pm 21.8 21.4 17.1 74 2.9 ENE 15 19 8 10 - - 0.0
21/06:00pm 22.0 21.5 17.0 73 3.1 ENE 15 19 8 10 - - 0.0
21/05:50pm 22.3 21.9 17.1 72 3.2 ENE 15 22 8 12 - - 0.0
21/05:40pm 22.8 22.4 17.1 70 3.6 NE 15 19 8 10 - - 0.0
21/05:30pm 23.0 22.7 17.3 70 3.6 E 15 22 8 12 - - 0.0
21/05:20pm 23.7 23.5 17.5 68 3.9 E 15 19 8 10 - - 0.0
21/05:10pm 24.1 23.9 17.5 66 4.2 E 15 15 8 8 - - 0.0
21/05:00pm 24.0 23.7 17.4 66 4.2 ENE 15 19 8 10 - - 0.0
21/04:50pm 24.0 23.8 17.6 67 4.0 E 15 19 8 10 - - 0.0
21/04:40pm 24.3 24.1 17.5 66 4.3 ENE 15 19 8 10 - - 0.0
21/04:30pm 24.6 24.2 17.1 63 4.7 NE 15 22 8 12 - - 0.0
21/04:20pm 24.6 23.4 17.0 62 4.8 E 19 22 10 12 - - 0.0
21/04:10pm 25.0 24.5 17.0 61 5.0 ENE 15 19 8 10 - - 0.0
21/04:00pm 25.1 24.6 17.0 60 5.1 E 15 19 8 10 - - 0.0
21/03:50pm 25.3 24.1 17.1 60 5.2 ENE 19 22 10 12 - - 0.0
21/03:40pm 26.2 25.8 17.2 57 5.7 E 15 22 8 12 - - 0.0
21/03:30pm 26.9 26.5 17.1 55 6.2 E 15 19 8 10 - - 0.0
21/03:20pm 27.3 27.0 17.4 54 6.3 ENE 15 19 8 10 - - 0.0
21/03:10pm 28.2 28.6 17.3 51 6.9 E 11 15 6 8 - - 0.0
21/03:00pm 28.4 29.0 17.6 52 6.9 E 11 11 6 6 - - 0.0
21/02:50pm 28.2 28.6 17.2 51 7.0 E 11 19 6 10 - - 0.0
21/02:40pm 28.9 28.5 17.1 49 7.5 E 15 19 8 10 - - 0.0
21/02:30pm 29.2 30.1 16.5 46 8.0 ESE 7 11 4 6 - - 0.0
21/02:20pm 28.8 28.9 16.5 47 7.8 NE 11 19 6 10 - - 0.0
21/02:10pm 29.1 28.9 15.7 44 8.4 ENE 11 15 6 8 - - 0.0
21/02:00pm 29.1 28.3 16.0 45 8.2 ENE 15 15 8 8 - - 0.0
21/01:50pm 29.8 29.9 16.5 44 8.4 ENE 11 11 6 6 - - 0.0
21/01:40pm 29.7 29.2 17.0 46 8.1 ENE 15 19 8 10 - - 0.0
21/01:30pm 30.3 30.6 17.1 45 8.4 ENE 11 15 6 8 - - 0.0
21/01:20pm 30.5 31.0 17.4 45 8.4 ENE 11 15 6 8 - - 0.0
21/01:10pm 29.8 30.4 17.6 48 7.8 NE 11 15 6 8 - - 0.0
21/01:00pm 29.7 30.3 17.7 48 7.7 NE 11 15 6 8 - - 0.0
21/12:50pm 30.4 31.8 17.8 46 8.1 SSW 7 15 4 8 - - 0.0
21/12:40pm 30.7 31.6 18.4 47 8.0 NE 11 15 6 8 - - 0.0
21/12:30pm 30.9 31.4 17.4 44 8.7 NNW 11 19 6 10 - - 0.0
21/12:20pm 31.4 30.7 16.3 40 9.6 NW 15 22 8 12 - - 0.0
21/12:10pm 30.8 30.6 15.6 39 9.5 NW 11 26 6 14 - - 0.0
21/12:00pm 30.3 29.4 15.9 41 9.1 NNW 15 22 8 12 - - 0.0
21/11:50am 29.6 28.0 15.9 43 8.6 NNW 19 30 10 16 - - 0.0
21/11:40am 28.9 27.4 16.2 46 8.0 WNW 19 30 10 16 - - 0.0
21/11:30am 28.0 26.3 17.1 51 6.9 NW 22 32 12 17 - - 0.0
21/11:20am 28.3 27.0 16.7 49 7.3 NW 19 22 10 12 - - 0.0
21/11:10am 27.5 27.4 17.9 55 6.2 NW 15 22 8 12 - - 0.0
21/11:00am 27.4 27.4 18.2 57 5.9 NNW 15 22 8 12 - - 0.0
21/10:50am 28.6 28.6 18.0 52 6.8 NNW 15 19 8 10 - - 0.0
21/10:40am 27.3 26.3 17.6 55 6.2 WNW 19 26 10 14 - - 0.0
21/10:30am - - 18.7 - - NW 11 19 6 10 - - 0.0
21/10:20am - - 18.3 - - NNW 11 15 6 8 - - 0.0
21/10:10am - - 17.8 - - NW 15 26 8 14 - - 0.0
21/10:00am - - 18.9 - - NW 15 22 8 12 - - 0.0
21/09:50am - - 17.7 - - WNW 11 15 6 8 - - 0.0
21/09:40am - - 17.8 - - NW 15 30 8 16 - - 0.0
21/09:30am - - 17.7 - - NW 19 30 10 16 - - 0.0
21/09:20am - - 18.2 - - NW 19 26 10 14 - - 0.0
21/09:10am - - 19.0 - - WNW 15 22 8 12 - - 0.0
21/09:00am - - 18.7 - - NW 11 15 6 8 - - 0.0
21/08:50am - - 18.7 - - N 15 19 8 10 - - 0.0
21/08:40am - - 18.6 - - NNW 19 30 10 16 - - 0.0
21/08:30am - - 18.8 - - NNW 19 26 10 14 - - 0.0
21/08:20am - - 19.2 - - NW 19 30 10 16 - - 0.0
21/08:10am - - 18.7 - - NNW 19 32 10 17 - - 0.0
21/08:00am - - 19.1 - - NW 22 30 12 16 - - 0.0
21/07:50am - - 19.1 - - NNW 15 22 8 12 - - 0.0
21/07:40am - - 19.2 - - NNW 15 19 8 10 - - 0.0
21/07:30am - - 19.1 - - N 19 30 10 16 - - 0.0
21/07:20am - - 19.1 - - NNW 15 22 8 12 - - 0.0
21/07:10am - - 19.3 - - NNW 15 22 8 12 - - 0.0
21/07:00am - - 19.3 - - N 15 19 8 10 - - 0.0
21/06:50am - - 19.4 - - N 15 19 8 10 - - 0.0
21/06:40am - - 19.3 - - N 11 22 6 12 - - 0.0
21/06:30am - - 19.2 - - NNE 11 19 6 10 - - 0.0
21/06:20am - - 19.0 - - N 11 15 6 8 - - 0.0
21/06:10am - - 19.0 - - NNE 11 19 6 10 - - 0.0
21/06:00am - - 19.0 - - N 11 15 6 8 - - 0.0
21/05:50am - - 18.9 - - N 11 22 6 12 - - 0.0
21/05:40am - - 19.0 - - NNE 7 15 4 8 - - 0.0
21/05:30am - - 19.1 - - NNE 7 15 4 8 - - 0.0
21/05:20am - - 19.1 - - N 7 11 4 6 - - 0.0
21/04:30am 19.4 21.9 19.1 98 0.2 NE 4 7 2 4 - - 0.0
21/04:20am 19.3 21.8 19.0 98 0.2 N 4 7 2 4 - - 0.0
21/04:10am 19.3 21.8 19.0 98 0.2 N 4 7 2 4 - - 0.0
21/04:00am 19.3 21.8 19.0 98 0.2 E 4 7 2 4 - - 0.0
21/03:50am 19.3 21.7 18.9 98 0.3 ENE 4 7 2 4 - - 0.0
21/03:40am 19.3 21.7 18.9 98 0.3 ENE 4 7 2 4 - - 0.0
21/03:30am 19.3 21.1 18.8 97 0.3 ENE 7 7 4 4 - - 0.0
21/03:20am 19.3 21.7 18.7 96 0.4 ENE 4 7 2 4 - - 0.0
21/03:10am 19.4 21.7 18.6 95 0.5 ENE 4 7 2 4 - - 0.0
21/03:00am 19.6 21.8 18.4 93 0.8 N 4 4 2 2 - - 0.0
21/02:50am 19.7 22.7 18.4 92 0.8 CALM 0 4 0 2 - - 0.0
21/02:40am 19.7 21.4 18.4 92 0.8 E 7 7 4 4 - - 0.0
21/02:30am 19.7 21.9 18.4 92 0.8 ENE 4 7 2 4 - - 0.0
21/02:20am 19.6 21.8 18.3 92 0.8 E 4 4 2 2 - - 0.0
21/02:10am 19.5 21.6 18.0 91 0.9 ENE 4 7 2 4 - - 0.0
21/02:00am 19.3 22.1 17.9 92 0.9 CALM 0 0 0 0 - - 0.0
21/01:50am 19.2 22.0 18.0 93 0.7 CALM 0 4 0 2 - - 0.0
21/01:40am 19.3 22.1 18.0 92 0.8 CALM 0 4 0 2 - - 0.0
21/01:30am 19.6 21.7 18.0 90 1.0 ENE 4 7 2 4 - - 0.0
21/01:20am 19.8 22.6 18.0 89 1.1 CALM 0 4 0 2 - - 0.0
21/01:10am 20.1 21.6 18.0 88 1.3 ESE 7 11 4 6 - - 0.0
21/01:00am 20.3 21.0 18.0 87 1.4 SE 11 15 6 8 - - 0.0
21/12:50am 20.3 20.2 17.8 85 1.6 SSE 15 15 8 8 - - 0.0
21/12:40am 19.9 21.4 18.1 89 1.1 SE 7 11 4 6 - - 0.0
21/12:30am 20.1 21.7 18.2 89 1.2 E 7 11 4 6 - - 0.0
21/12:20am 20.3 21.9 18.3 88 1.3 ESE 7 7 4 4 - - 0.0
21/12:10am 20.3 21.9 18.3 88 1.3 ESE 7 11 4 6 - - 0.0
21/12:00am 20.3 21.9 18.3 88 1.3 ESE 7 15 4 8 - - 0.0
 
Date/Time
EDT
Temp
°C
App
Temp
°C
Dew
Point
°C
Rel
Hum
%
Delta-T
°C
Wind Press
QNH
hPa
Press
MSL
hPa
Rain since
9am
mm
Dir  Spd
km/h
Gust
km/h
Spd
kts
Gust
kts
20/11:50pm 20.2 21.8 18.3 89 1.2 ESE 7 11 4 6 - - 0.0
20/11:40pm 20.2 21.9 18.4 89 1.1 E 7 7 4 4 - - 0.0
20/11:30pm 20.3 21.9 18.3 88 1.3 SE 7 11 4 6 - - 0.0
20/11:20pm 20.4 20.5 18.3 88 1.3 SSE 15 19 8 10 - - 0.0
20/11:10pm 20.4 20.4 18.2 87 1.4 S 15 19 8 10 - - 0.0
20/11:00pm 20.1 20.2 18.3 89 1.1 S 15 19 8 10 - - 0.0
20/10:50pm 20.0 19.4 18.4 90 1.0 SSE 19 22 10 12 - - 0.0
20/10:40pm 19.8 19.3 18.6 93 0.8 SSE 19 22 10 12 - - 0.0
20/10:30pm 19.8 20.8 18.7 93 0.7 ESE 11 15 6 8 - - 0.0
20/10:20pm 19.9 20.9 18.7 93 0.8 ESE 11 11 6 6 - - 0.0
20/10:10pm 20.1 21.9 18.7 92 0.9 E 7 7 4 4 - - 0.0
20/10:00pm 20.2 21.2 18.7 91 1.0 ESE 11 15 6 8 - - 0.0
20/09:50pm 20.2 20.5 18.7 91 1.0 SE 15 19 8 10 - - 0.0
20/09:40pm 20.1 19.6 18.7 92 0.9 SSE 19 22 10 12 - - 0.0
20/09:30pm 20.0 20.3 18.7 92 0.8 S 15 22 8 12 - - 0.0
20/09:20pm 19.9 20.2 18.7 93 0.8 S 15 19 8 10 - - 0.0
20/09:10pm 19.7 19.9 18.6 93 0.7 S 15 19 8 10 - - 0.0
20/09:00pm 19.7 19.2 18.6 93 0.7 SSE 19 22 10 12 - - 0.0
20/08:50pm 19.7 19.2 18.7 94 0.6 SSE 19 22 10 12 - - 0.0
20/08:40pm 19.6 19.9 18.7 94 0.6 S 15 22 8 12 - - 0.0
20/08:30pm 19.5 20.6 18.8 96 0.4 S 11 15 6 8 - - 0.0
20/08:20pm 19.6 19.9 18.8 95 0.5 S 15 15 8 8 - - 0.0
20/08:10pm 19.5 19.9 18.9 96 0.4 S 15 15 8 8 - - 0.0
20/08:00pm 19.6 19.9 18.8 95 0.5 SSE 15 19 8 10 - - 0.0
20/07:50pm 19.7 20.8 18.8 94 0.6 SSE 11 19 6 10 - - 0.0
20/07:40pm 19.8 20.1 18.8 94 0.6 S 15 22 8 12 - - 0.0
20/07:30pm 19.9 20.2 18.8 93 0.7 SSE 15 26 8 14 - - 0.0
20/07:20pm 20.0 20.3 18.8 93 0.8 SSE 15 19 8 10 - - 0.0
20/07:10pm 20.2 20.5 18.8 92 0.9 SSE 15 19 8 10 - - 0.0
20/07:00pm 20.5 21.6 18.9 90 1.0 SE 11 15 6 8 - - 0.0
20/06:50pm 20.6 21.7 18.9 90 1.1 SSE 11 22 6 12 - - 0.0
20/06:40pm 20.7 21.8 18.9 89 1.1 SSE 11 15 6 8 - - 0.0
20/06:30pm 20.7 21.8 18.9 89 1.1 SSE 11 19 6 10 - - 0.0
20/06:20pm 20.7 21.1 18.9 89 1.1 ESE 15 26 8 14 - - 0.0
20/06:10pm 21.0 20.6 18.9 88 1.3 ESE 19 26 10 14 - - 0.0
20/06:00pm 21.2 22.4 19.1 88 1.3 ESE 11 19 6 10 - - 0.0
20/05:50pm 21.3 22.6 19.2 88 1.3 SSE 11 19 6 10 - - 0.0
20/05:40pm 21.3 21.7 19.1 87 1.4 ESE 15 26 8 14 - - 0.0
20/05:30pm 21.7 22.2 19.2 86 1.6 SE 15 26 8 14 - - 0.0
20/05:20pm 21.8 23.1 19.2 85 1.7 S 11 22 6 12 - - 0.0
20/05:10pm 22.0 22.6 19.4 85 1.7 E 15 22 8 12 - - 0.0
20/05:00pm 22.2 22.0 19.3 83 1.9 ESE 19 26 10 14 - - 0.0
20/04:50pm 22.6 23.2 19.4 82 2.1 ESE 15 22 8 12 - - 0.0
20/04:40pm 22.9 23.6 19.6 81 2.1 SE 15 22 8 12 - - 0.0
20/04:30pm 23.1 24.5 19.5 80 2.3 ENE 11 19 6 10 - - 0.0
20/04:20pm 23.0 23.5 19.3 79 2.4 NE 15 19 8 10 - - 0.0
20/04:10pm 22.6 23.1 19.3 81 2.1 ESE 15 22 8 12 - - 0.0
20/04:00pm 22.5 22.3 19.3 82 2.1 ESE 19 26 10 14 - - 0.0
20/03:50pm 22.9 23.4 19.3 80 2.3 ESE 15 19 8 10 - - 0.0
20/03:40pm 22.6 22.4 19.4 82 2.1 ESE 19 30 10 16 - - 0.0
20/03:30pm 23.3 23.7 19.1 77 2.7 WSW 15 22 8 12 - - 0.0
20/03:20pm 23.9 24.2 18.8 73 3.3 E 15 19 8 10 - - 0.0
20/03:10pm 23.9 24.2 18.7 72 3.3 E 15 22 8 12 - - 0.0
20/03:00pm 24.4 24.6 18.5 69 3.8 W 15 22 8 12 - - 0.0
20/02:50pm 24.8 24.8 18.2 66 4.2 S 15 22 8 12 - - 0.0
20/02:40pm 24.1 22.1 18.2 69 3.8 E 26 32 14 17 - - 0.0
20/02:30pm 25.1 24.3 18.0 64 4.5 E 19 26 10 14 - - 0.0
20/02:20pm 25.5 24.7 17.9 63 4.8 ESE 19 26 10 14 - - 0.0
20/02:10pm 26.4 26.3 17.8 59 5.5 SE 15 26 8 14 - - 0.0
20/02:00pm 26.5 25.6 17.8 58 5.6 SSE 19 22 10 12 - - 0.0
20/01:50pm 26.9 26.8 17.8 57 5.8 WSW 15 19 8 10 - - 0.0
20/01:40pm 26.1 25.2 17.8 60 5.3 ESE 19 30 10 16 - - 0.0
20/01:30pm 26.8 25.8 17.6 57 5.9 ESE 19 22 10 12 - - 0.0
20/01:20pm 27.0 26.0 17.5 56 6.0 SE 19 26 10 14 - - 0.0
20/01:10pm 27.4 26.3 17.3 54 6.4 SE 19 30 10 16 - - 0.0
20/01:00pm 27.3 26.2 17.3 54 6.4 SE 19 30 10 16 - - 0.0
20/12:50pm 28.0 27.1 17.8 54 6.5 SE 19 32 10 17 - - 0.0
20/12:40pm 28.1 28.6 17.4 52 6.8 S 11 15 6 8 - - 0.0
20/12:30pm 25.9 23.4 17.1 58 5.5 SE 26 32 14 17 - - 0.0
20/12:20pm 27.1 26.0 17.3 55 6.2 ESE 19 26 10 14 - - 0.0
20/12:10pm 27.1 25.8 16.8 53 6.5 ESE 19 30 10 16 - - 0.0
20/12:00pm 27.8 27.3 16.9 51 6.9 - 15 22 8 12 - - 0.0
20/11:50am 27.3 25.9 16.5 51 6.8 SE 19 26 10 14 - - 0.0
20/11:40am 27.9 27.2 16.4 49 7.2 SE 15 26 8 14 - - 0.0
20/11:30am 27.0 25.5 16.3 52 6.7 ESE 19 30 10 16 - - 0.0
20/11:20am 29.1 28.2 15.9 44 8.3 ESE 15 22 8 12 - - 0.0
20/11:10am 29.4 29.3 16.0 44 8.4 E 11 19 6 10 - - 0.0
20/11:00am 28.9 28.5 15.3 43 8.4 S 11 19 6 10 - - 0.0
20/10:50am 27.7 26.6 15.2 46 7.7 ESE 15 26 8 14 - - 0.0
20/10:40am 28.5 27.9 14.5 42 8.6 SE 11 15 6 8 - - 0.0
20/10:30am 27.8 27.0 14.0 42 8.4 ESE 11 15 6 8 - - 0.0
20/10:20am 27.1 26.2 13.6 43 8.1 SE 11 15 6 8 - - 0.0
20/10:10am 25.7 23.9 13.3 46 7.4 ESE 15 22 8 12 - - 0.0
20/10:00am 26.5 26.3 13.5 44 7.8 ESE 7 11 4 6 - - 0.0
20/09:50am 25.9 - 13.1 45 7.6 - - - - - - - 0.0
20/09:40am 25.6 - 12.8 45 7.5 - - - - - - - 0.0
20/09:20am 25.0 - 13.8 49 6.7 - - - - - - - 0.0
20/09:10am 25.1 - 13.0 47 7.1 - - - - - - - 0.0
20/09:00am 25.2 - 11.5 42 7.9 - - - - - - - 0.0
20/08:50am 24.6 - 12.8 47 6.9 - - - - - - - 0.0
20/08:40am 23.7 - 9.4 40 7.9 - - - - - - - 0.0
20/08:30am 22.7 - 13.0 54 5.7 - - - - - - - 0.0
20/08:20am 21.7 - 12.9 57 5.1 - - - - - - - 0.0
20/08:10am 20.8 - 15.6 72 3.1 - - - - - - - 0.0
20/08:00am 20.3 - 16.5 79 2.3 - - - - - - - 0.0
20/07:50am 20.1 - 15.2 73 2.9 - - - - - - - 0.0
20/07:40am 19.3 - 15.1 76 2.5 - - - - - - - 0.0
20/07:30am 18.5 - 15.5 83 1.8 - - - - - - - 0.0
20/07:20am 18.0 - 16.7 92 0.8 - - - - - - - 0.0
20/07:10am 18.3 - 17.1 93 0.7 - - - - - - - 0.0
20/07:00am 18.3 - 16.9 91 0.9 - - - - - - - 0.0
20/06:50am 18.7 - 17.1 90 1.0 - - - - - - - 0.0
20/06:40am 19.0 - 16.1 83 1.8 - - - - - - - 0.0
20/06:20am 19.3 - 12.8 66 3.7 - - - - - - - 0.0
20/06:10am 19.0 - 11.6 62 4.1 - - - - - - - 0.0
20/06:00am 18.7 - 11.2 61 4.2 - - - - - - - 0.0
20/05:50am 18.8 - 12.6 67 3.5 - - - - - - - 0.0
20/05:40am 19.2 - 15.4 78 2.3 - - - - - - - 0.0
20/05:30am 19.0 - 14.4 74 2.7 - - - - - - - 0.0
20/05:20am 18.8 - 15.2 79 2.1 - - - - - - - 0.0
20/05:10am 18.3 - 16.2 87 1.3 - - - - - - - 0.0
20/05:00am 18.2 - 17.8 97 0.2 - - - - - - - 0.0
20/04:50am 18.4 - 18.1 98 0.2 - - - - - - - 0.0
20/04:40am 19.1 - 18.1 94 0.6 - - - - - - - 0.0
20/04:30am 19.5 - 17.9 90 1.0 - - - - - - - 0.0
20/04:20am 20.3 - 16.3 78 2.4 - - - - - - - 0.0
20/04:10am 21.0 - 13.6 62 4.3 - - - - - - - 0.0
20/04:00am 22.1 - 10.1 46 6.6 - - - - - - - 0.0
20/03:50am 22.0 - 9.3 44 6.9 - - - - - - - 0.0
20/03:40am 21.6 - 10.0 47 6.4 - - - - - - - 0.0
20/03:30am 21.4 - 10.3 49 6.1 - - - - - - - 0.0
20/03:10am 20.2 - 16.4 79 2.3 - - - - - - - 0.0
20/03:00am 20.4 - 17.0 81 2.1 - - - - - - - 0.0
20/02:50am 20.5 - 17.7 84 1.7 - - - - - - - 0.0
20/02:40am 20.7 - 16.5 77 2.6 - - - - - - - 0.0

Other formats

Comma delimited format used in spreadsheet applications
http://www.bom.gov.au/fwo/IDN60801/IDN60801.99789.axf

JavaScript Object Notation format (JSON) in row-major order
http://www.bom.gov.au/fwo/IDN60801/IDN60801.99789.json

Data quality

Most of these data are generated automatically and are frequently updated. Quality checks on data are not normally performed. It is possible for incorrect values to appear. Refer to information at About Latest Weather Observations and please check the disclaimer before using these data.